sensor_id;sensor_type;location;lat;lon;timestamp;P1;durP1;ratioP1;P2;durP2;ratioP2
15408;SDS011;7803;48.130;13.788;2023-07-31T03:59:33;2.60;;;1.80;;
15408;SDS011;7803;48.130;13.788;2023-07-31T04:02:35;3.88;;;1.80;;
15408;SDS011;7803;48.130;13.788;2023-07-31T04:05:38;4.55;;;2.20;;
15408;SDS011;7803;48.130;13.788;2023-07-31T04:08:40;4.65;;;2.30;;
15408;SDS011;7803;48.130;13.788;2023-07-31T04:11:42;2.17;;;1.67;;
15408;SDS011;7803;48.130;13.788;2023-07-31T04:14:45;3.90;;;1.63;;
15408;SDS011;7803;48.130;13.788;2023-07-31T04:17:47;2.45;;;1.60;;
15408;SDS011;7803;48.130;13.788;2023-07-31T04:20:49;4.50;;;2.22;;
15408;SDS011;7803;48.130;13.788;2023-07-31T04:23:51;1.80;;;1.48;;
15408;SDS011;7803;48.130;13.788;2023-07-31T04:26:55;3.67;;;2.00;;
15408;SDS011;7803;48.130;13.788;2023-07-31T04:29:59;2.92;;;1.80;;
15408;SDS011;7803;48.130;13.788;2023-07-31T04:33:01;2.67;;;1.67;;
15408;SDS011;7803;48.130;13.788;2023-07-31T04:36:03;3.17;;;1.77;;
15408;SDS011;7803;48.130;13.788;2023-07-31T04:39:06;3.20;;;1.73;;
15408;SDS011;7803;48.130;13.788;2023-07-31T04:42:08;4.40;;;1.83;;
15408;SDS011;7803;48.130;13.788;2023-07-31T04:45:11;2.72;;;1.73;;
15408;SDS011;7803;48.130;13.788;2023-07-31T04:48:13;2.75;;;1.80;;
15408;SDS011;7803;48.130;13.788;2023-07-31T04:51:15;2.53;;;1.75;;
15408;SDS011;7803;48.130;13.788;2023-07-31T04:54:17;3.42;;;2.10;;
15408;SDS011;7803;48.130;13.788;2023-07-31T04:57:19;4.30;;;1.98;;
15408;SDS011;7803;48.130;13.788;2023-07-31T05:00:22;5.53;;;2.42;;
15408;SDS011;7803;48.130;13.788;2023-07-31T05:03:24;5.47;;;2.45;;
15408;SDS011;7803;48.130;13.788;2023-07-31T05:06:26;2.92;;;1.90;;
15408;SDS011;7803;48.130;13.788;2023-07-31T05:09:28;2.38;;;1.60;;
15408;SDS011;7803;48.130;13.788;2023-07-31T05:12:30;2.83;;;1.58;;
15408;SDS011;7803;48.130;13.788;2023-07-31T05:15:33;2.35;;;1.60;;
15408;SDS011;7803;48.130;13.788;2023-07-31T05:18:35;2.88;;;1.83;;
15408;SDS011;7803;48.130;13.788;2023-07-31T05:21:37;4.78;;;2.17;;
15408;SDS011;7803;48.130;13.788;2023-07-31T05:24:39;3.70;;;1.98;;
15408;SDS011;7803;48.130;13.788;2023-07-31T05:27:41;2.80;;;1.75;;
15408;SDS011;7803;48.130;13.788;2023-07-31T05:30:44;2.38;;;1.60;;
15408;SDS011;7803;48.130;13.788;2023-07-31T05:33:46;2.30;;;1.80;;
15408;SDS011;7803;48.130;13.788;2023-07-31T05:36:49;2.17;;;1.58;;
15408;SDS011;7803;48.130;13.788;2023-07-31T05:39:51;6.00;;;2.72;;
15408;SDS011;7803;48.130;13.788;2023-07-31T05:42:53;4.25;;;2.08;;
15408;SDS011;7803;48.130;13.788;2023-07-31T05:45:57;3.90;;;1.80;;
15408;SDS011;7803;48.130;13.788;2023-07-31T05:48:59;3.95;;;1.80;;
15408;SDS011;7803;48.130;13.788;2023-07-31T05:52:01;5.75;;;2.15;;
15408;SDS011;7803;48.130;13.788;2023-07-31T05:55:03;3.88;;;2.22;;
15408;SDS011;7803;48.130;13.788;2023-07-31T05:58:06;2.75;;;1.75;;
15408;SDS011;7803;48.130;13.788;2023-07-31T06:01:09;3.03;;;1.88;;
15408;SDS011;7803;48.130;13.788;2023-07-31T06:04:11;2.83;;;1.70;;
15408;SDS011;7803;48.130;13.788;2023-07-31T06:07:13;3.88;;;2.10;;
15408;SDS011;7803;48.130;13.788;2023-07-31T06:10:15;3.13;;;1.55;;
15408;SDS011;7803;48.130;13.788;2023-07-31T06:13:17;2.63;;;1.75;;
15408;SDS011;7803;48.130;13.788;2023-07-31T06:16:21;3.20;;;2.00;;
15408;SDS011;7803;48.130;13.788;2023-07-31T06:19:23;3.42;;;1.98;;
15408;SDS011;7803;48.130;13.788;2023-07-31T06:22:24;3.17;;;1.98;;
15408;SDS011;7803;48.130;13.788;2023-07-31T06:25:26;4.28;;;2.10;;
15408;SDS011;7803;48.130;13.788;2023-07-31T06:28:28;5.88;;;2.58;;
15408;SDS011;7803;48.130;13.788;2023-07-31T06:31:32;3.08;;;1.95;;
15408;SDS011;7803;48.130;13.788;2023-07-31T06:34:34;2.33;;;1.75;;
15408;SDS011;7803;48.130;13.788;2023-07-31T06:37:36;2.65;;;1.70;;
15408;SDS011;7803;48.130;13.788;2023-07-31T06:40:40;2.90;;;1.88;;
15408;SDS011;7803;48.130;13.788;2023-07-31T06:43:42;3.05;;;1.90;;
15408;SDS011;7803;48.130;13.788;2023-07-31T06:46:45;3.75;;;2.05;;
15408;SDS011;7803;48.130;13.788;2023-07-31T06:49:47;2.97;;;1.90;;
15408;SDS011;7803;48.130;13.788;2023-07-31T06:52:49;3.15;;;1.90;;
15408;SDS011;7803;48.130;13.788;2023-07-31T06:55:51;4.07;;;2.25;;
15408;SDS011;7803;48.130;13.788;2023-07-31T06:58:53;4.30;;;2.25;;
15408;SDS011;7803;48.130;13.788;2023-07-31T07:01:56;2.72;;;1.70;;
15408;SDS011;7803;48.130;13.788;2023-07-31T07:04:58;2.55;;;1.75;;
15408;SDS011;7803;48.130;13.788;2023-07-31T07:08:00;2.10;;;1.50;;
15408;SDS011;7803;48.130;13.788;2023-07-31T07:11:02;4.15;;;2.22;;
15408;SDS011;7803;48.130;13.788;2023-07-31T07:14:04;4.15;;;2.40;;
15408;SDS011;7803;48.130;13.788;2023-07-31T07:17:08;5.57;;;2.53;;
15408;SDS011;7803;48.130;13.788;2023-07-31T07:20:10;3.38;;;1.98;;
15408;SDS011;7803;48.130;13.788;2023-07-31T07:23:12;3.28;;;1.75;;
15408;SDS011;7803;48.130;13.788;2023-07-31T07:26:14;2.88;;;1.55;;
15408;SDS011;7803;48.130;13.788;2023-07-31T07:29:16;3.38;;;1.83;;
15408;SDS011;7803;48.130;13.788;2023-07-31T07:32:19;2.88;;;1.90;;
15408;SDS011;7803;48.130;13.788;2023-07-31T07:35:22;2.75;;;1.70;;
15408;SDS011;7803;48.130;13.788;2023-07-31T07:38:24;4.28;;;2.28;;
15408;SDS011;7803;48.130;13.788;2023-07-31T07:41:26;8.93;;;3.38;;
15408;SDS011;7803;48.130;13.788;2023-07-31T07:44:28;3.78;;;1.98;;
15408;SDS011;7803;48.130;13.788;2023-07-31T07:47:31;2.22;;;1.60;;
15408;SDS011;7803;48.130;13.788;2023-07-31T07:50:33;2.03;;;1.52;;
15408;SDS011;7803;48.130;13.788;2023-07-31T07:53:35;2.60;;;1.67;;
15408;SDS011;7803;48.130;13.788;2023-07-31T07:56:37;2.45;;;1.75;;
15408;SDS011;7803;48.130;13.788;2023-07-31T07:59:39;3.20;;;1.88;;
15408;SDS011;7803;48.130;13.788;2023-07-31T08:02:43;2.55;;;1.70;;
15408;SDS011;7803;48.130;13.788;2023-07-31T08:05:45;3.30;;;2.00;;
15408;SDS011;7803;48.130;13.788;2023-07-31T08:08:47;6.60;;;2.80;;
15408;SDS011;7803;48.130;13.788;2023-07-31T08:11:48;3.30;;;1.92;;
15408;SDS011;7803;48.130;13.788;2023-07-31T08:14:50;3.35;;;2.10;;
15408;SDS011;7803;48.130;13.788;2023-07-31T08:17:54;2.30;;;1.73;;
15408;SDS011;7803;48.130;13.788;2023-07-31T08:20:56;3.00;;;1.90;;
15408;SDS011;7803;48.130;13.788;2023-07-31T08:23:58;6.93;;;1.90;;
15408;SDS011;7803;48.130;13.788;2023-07-31T08:27:00;4.15;;;2.13;;
15408;SDS011;7803;48.130;13.788;2023-07-31T08:30:02;5.82;;;2.45;;
15408;SDS011;7803;48.130;13.788;2023-07-31T08:33:06;3.58;;;1.92;;
15408;SDS011;7803;48.130;13.788;2023-07-31T08:36:08;4.43;;;2.20;;
15408;SDS011;7803;48.130;13.788;2023-07-31T08:39:10;2.83;;;1.88;;
15408;SDS011;7803;48.130;13.788;2023-07-31T08:42:12;2.72;;;1.80;;
15408;SDS011;7803;48.130;13.788;2023-07-31T08:45:14;2.65;;;1.75;;
15408;SDS011;7803;48.130;13.788;2023-07-31T08:48:18;2.50;;;1.85;;
15408;SDS011;7803;48.130;13.788;2023-07-31T08:51:21;3.72;;;2.00;;
15408;SDS011;7803;48.130;13.788;2023-07-31T08:54:23;4.32;;;2.28;;
15408;SDS011;7803;48.130;13.788;2023-07-31T08:57:29;5.30;;;2.70;;
15408;SDS011;7803;48.130;13.788;2023-07-31T09:00:32;3.38;;;2.05;;
15408;SDS011;7803;48.130;13.788;2023-07-31T09:03:35;3.47;;;2.10;;
15408;SDS011;7803;48.130;13.788;2023-07-31T09:06:38;6.22;;;2.40;;
15408;SDS011;7803;48.130;13.788;2023-07-31T09:09:41;3.42;;;2.05;;
15408;SDS011;7803;48.130;13.788;2023-07-31T09:12:43;2.30;;;1.70;;
15408;SDS011;7803;48.130;13.788;2023-07-31T09:15:47;5.70;;;2.47;;
15408;SDS011;7803;48.130;13.788;2023-07-31T09:18:56;5.82;;;2.75;;
15408;SDS011;7803;48.130;13.788;2023-07-31T09:21:58;4.07;;;2.10;;
15408;SDS011;7803;48.130;13.788;2023-07-31T09:25:05;2.88;;;1.98;;
15408;SDS011;7803;48.130;13.788;2023-07-31T09:28:16;4.05;;;2.10;;
15408;SDS011;7803;48.130;13.788;2023-07-31T09:31:18;3.10;;;1.90;;
15408;SDS011;7803;48.130;13.788;2023-07-31T09:34:37;3.00;;;2.03;;
15408;SDS011;7803;48.130;13.788;2023-07-31T09:37:40;2.55;;;1.70;;
15408;SDS011;7803;48.130;13.788;2023-07-31T09:40:42;2.25;;;1.73;;
15408;SDS011;7803;48.130;13.788;2023-07-31T09:43:47;2.47;;;1.80;;
15408;SDS011;7803;48.130;13.788;2023-07-31T09:46:54;2.05;;;1.77;;
15408;SDS011;7803;48.130;13.788;2023-07-31T09:49:58;3.50;;;2.00;;
15408;SDS011;7803;48.130;13.788;2023-07-31T09:53:00;3.70;;;2.17;;
15408;SDS011;7803;48.130;13.788;2023-07-31T09:56:02;3.45;;;2.08;;
15408;SDS011;7803;48.130;13.788;2023-07-31T09:59:04;4.97;;;2.60;;
15408;SDS011;7803;48.130;13.788;2023-07-31T10:02:07;3.15;;;2.08;;
15408;SDS011;7803;48.130;13.788;2023-07-31T10:05:16;3.05;;;1.88;;
15408;SDS011;7803;48.130;13.788;2023-07-31T10:08:18;2.80;;;1.80;;
15408;SDS011;7803;48.130;13.788;2023-07-31T10:11:23;2.60;;;2.00;;
15408;SDS011;7803;48.130;13.788;2023-07-31T10:14:28;3.60;;;2.17;;
15408;SDS011;7803;48.130;13.788;2023-07-31T10:17:32;2.42;;;1.90;;
15408;SDS011;7803;48.130;13.788;2023-07-31T10:20:37;6.15;;;3.10;;
15408;SDS011;7803;48.130;13.788;2023-07-31T10:23:39;5.15;;;2.65;;
15408;SDS011;7803;48.130;13.788;2023-07-31T10:26:43;2.70;;;1.75;;
15408;SDS011;7803;48.130;13.788;2023-07-31T10:29:48;4.75;;;2.42;;
15408;SDS011;7803;48.130;13.788;2023-07-31T10:32:51;2.92;;;2.00;;
15408;SDS011;7803;48.130;13.788;2023-07-31T10:39:35;4.07;;;2.30;;
15408;SDS011;7803;48.130;13.788;2023-07-31T10:42:44;2.72;;;2.00;;
15408;SDS011;7803;48.130;13.788;2023-07-31T10:45:48;2.75;;;2.17;;
15408;SDS011;7803;48.130;13.788;2023-07-31T10:48:57;3.55;;;2.33;;
15408;SDS011;7803;48.130;13.788;2023-07-31T10:52:01;3.50;;;2.13;;
15408;SDS011;7803;48.130;13.788;2023-07-31T10:55:24;3.30;;;2.00;;
15408;SDS011;7803;48.130;13.788;2023-07-31T10:58:27;2.63;;;2.00;;
15408;SDS011;7803;48.130;13.788;2023-07-31T11:05:05;2.95;;;2.20;;
15408;SDS011;7803;48.130;13.788;2023-07-31T11:08:13;2.80;;;2.00;;
15408;SDS011;7803;48.130;13.788;2023-07-31T11:11:16;3.30;;;2.00;;
15408;SDS011;7803;48.130;13.788;2023-07-31T11:14:20;2.90;;;1.90;;
15408;SDS011;7803;48.130;13.788;2023-07-31T11:17:24;2.75;;;1.83;;
15408;SDS011;7803;48.130;13.788;2023-07-31T11:20:27;10.10;;;3.78;;
15408;SDS011;7803;48.130;13.788;2023-07-31T11:23:32;3.22;;;2.00;;
15408;SDS011;7803;48.130;13.788;2023-07-31T11:26:35;3.67;;;2.00;;
15408;SDS011;7803;48.130;13.788;2023-07-31T11:29:36;3.13;;;2.05;;
15408;SDS011;7803;48.130;13.788;2023-07-31T11:32:38;3.00;;;1.88;;
15408;SDS011;7803;48.130;13.788;2023-07-31T11:35:42;2.65;;;1.95;;
15408;SDS011;7803;48.130;13.788;2023-07-31T11:38:46;2.40;;;1.60;;
15408;SDS011;7803;48.130;13.788;2023-07-31T11:41:49;1.90;;;1.70;;
15408;SDS011;7803;48.130;13.788;2023-07-31T11:44:51;4.60;;;2.65;;
15408;SDS011;7803;48.130;13.788;2023-07-31T11:47:53;4.78;;;2.47;;
15408;SDS011;7803;48.130;13.788;2023-07-31T11:50:57;3.00;;;2.15;;
15408;SDS011;7803;48.130;13.788;2023-07-31T11:54:02;3.85;;;2.17;;
15408;SDS011;7803;48.130;13.788;2023-07-31T11:57:04;3.33;;;2.17;;
15408;SDS011;7803;48.130;13.788;2023-07-31T12:00:08;3.60;;;2.30;;
15408;SDS011;7803;48.130;13.788;2023-07-31T12:03:13;4.10;;;2.22;;
15408;SDS011;7803;48.130;13.788;2023-07-31T12:06:15;2.42;;;1.83;;
15408;SDS011;7803;48.130;13.788;2023-07-31T12:09:19;3.35;;;2.13;;
15408;SDS011;7803;48.130;13.788;2023-07-31T12:12:23;2.58;;;1.90;;
15408;SDS011;7803;48.130;13.788;2023-07-31T12:15:34;2.30;;;1.83;;
15408;SDS011;7803;48.130;13.788;2023-07-31T12:18:38;3.25;;;1.95;;
15408;SDS011;7803;48.130;13.788;2023-07-31T12:21:40;2.78;;;1.80;;
15408;SDS011;7803;48.130;13.788;2023-07-31T12:24:44;4.20;;;2.40;;
15408;SDS011;7803;48.130;13.788;2023-07-31T12:27:46;3.38;;;2.00;;
15408;SDS011;7803;48.130;13.788;2023-07-31T12:30:48;3.35;;;2.03;;
15408;SDS011;7803;48.130;13.788;2023-07-31T12:33:50;3.63;;;2.13;;
15408;SDS011;7803;48.130;13.788;2023-07-31T12:36:53;2.92;;;2.03;;
15408;SDS011;7803;48.130;13.788;2023-07-31T12:39:56;6.50;;;2.80;;
15408;SDS011;7803;48.130;13.788;2023-07-31T12:43:03;4.43;;;2.47;;
15408;SDS011;7803;48.130;13.788;2023-07-31T12:46:05;3.78;;;2.10;;
15408;SDS011;7803;48.130;13.788;2023-07-31T12:49:08;2.70;;;2.08;;
15408;SDS011;7803;48.130;13.788;2023-07-31T12:52:10;2.78;;;2.15;;
15408;SDS011;7803;48.130;13.788;2023-07-31T12:55:14;3.33;;;2.20;;
15408;SDS011;7803;48.130;13.788;2023-07-31T12:58:16;3.85;;;2.30;;
15408;SDS011;7803;48.130;13.788;2023-07-31T13:01:18;3.15;;;2.22;;
15408;SDS011;7803;48.130;13.788;2023-07-31T13:04:20;3.75;;;2.22;;
15408;SDS011;7803;48.130;13.788;2023-07-31T13:07:22;6.55;;;2.78;;
15408;SDS011;7803;48.130;13.788;2023-07-31T13:10:27;5.75;;;2.67;;
15408;SDS011;7803;48.130;13.788;2023-07-31T13:13:29;2.92;;;2.22;;
15408;SDS011;7803;48.130;13.788;2023-07-31T13:16:31;2.47;;;2.10;;
15408;SDS011;7803;48.130;13.788;2023-07-31T13:19:33;3.45;;;2.22;;
15408;SDS011;7803;48.130;13.788;2023-07-31T13:22:35;3.00;;;2.00;;
15408;SDS011;7803;48.130;13.788;2023-07-31T13:25:39;3.13;;;2.15;;
15408;SDS011;7803;48.130;13.788;2023-07-31T13:28:41;3.20;;;2.22;;
15408;SDS011;7803;48.130;13.788;2023-07-31T13:31:43;2.80;;;2.13;;
15408;SDS011;7803;48.130;13.788;2023-07-31T13:34:45;2.78;;;2.38;;
15408;SDS011;7803;48.130;13.788;2023-07-31T13:37:47;4.65;;;2.67;;
15408;SDS011;7803;48.130;13.788;2023-07-31T13:40:50;2.22;;;1.90;;
15408;SDS011;7803;48.130;13.788;2023-07-31T13:43:52;2.72;;;2.00;;
15408;SDS011;7803;48.130;13.788;2023-07-31T13:46:54;2.60;;;2.05;;
15408;SDS011;7803;48.130;13.788;2023-07-31T13:49:56;3.15;;;2.20;;
15408;SDS011;7803;48.130;13.788;2023-07-31T13:52:59;4.38;;;2.47;;
15408;SDS011;7803;48.130;13.788;2023-07-31T13:56:02;5.38;;;2.70;;
15408;SDS011;7803;48.130;13.788;2023-07-31T13:59:05;3.85;;;2.38;;
15408;SDS011;7803;48.130;13.788;2023-07-31T14:02:08;3.70;;;2.60;;
15408;SDS011;7803;48.130;13.788;2023-07-31T14:05:10;4.00;;;2.10;;
15408;SDS011;7803;48.130;13.788;2023-07-31T14:08:11;3.00;;;2.17;;
15408;SDS011;7803;48.130;13.788;2023-07-31T14:11:15;3.35;;;2.33;;
15408;SDS011;7803;48.130;13.788;2023-07-31T14:14:17;3.83;;;2.30;;
15408;SDS011;7803;48.130;13.788;2023-07-31T14:17:19;3.97;;;2.53;;
15408;SDS011;7803;48.130;13.788;2023-07-31T14:20:21;5.53;;;3.08;;
15408;SDS011;7803;48.130;13.788;2023-07-31T14:23:23;3.88;;;2.30;;
15408;SDS011;7803;48.130;13.788;2023-07-31T14:26:27;6.50;;;3.20;;
15408;SDS011;7803;48.130;13.788;2023-07-31T14:29:29;8.40;;;3.65;;
15408;SDS011;7803;48.130;13.788;2023-07-31T14:32:31;4.07;;;2.20;;
15408;SDS011;7803;48.130;13.788;2023-07-31T14:35:33;2.40;;;2.20;;
15408;SDS011;7803;48.130;13.788;2023-07-31T14:38:35;2.70;;;2.15;;
15408;SDS011;7803;48.130;13.788;2023-07-31T14:41:39;2.90;;;2.22;;
15408;SDS011;7803;48.130;13.788;2023-07-31T14:44:41;4.53;;;2.30;;
15408;SDS011;7803;48.130;13.788;2023-07-31T14:47:43;3.80;;;2.58;;
15408;SDS011;7803;48.130;13.788;2023-07-31T14:50:45;3.35;;;2.35;;
15408;SDS011;7803;48.130;13.788;2023-07-31T14:53:47;4.07;;;2.60;;
15408;SDS011;7803;48.130;13.788;2023-07-31T14:56:50;4.65;;;2.72;;
15408;SDS011;7803;48.130;13.788;2023-07-31T14:59:52;2.35;;;2.00;;
15408;SDS011;7803;48.130;13.788;2023-07-31T15:02:54;2.65;;;2.30;;
15408;SDS011;7803;48.130;13.788;2023-07-31T15:05:56;2.47;;;1.92;;
15408;SDS011;7803;48.130;13.788;2023-07-31T15:08:58;2.88;;;2.30;;
15408;SDS011;7803;48.130;13.788;2023-07-31T15:12:01;5.20;;;2.88;;
15408;SDS011;7803;48.130;13.788;2023-07-31T15:15:04;4.07;;;2.35;;
15408;SDS011;7803;48.130;13.788;2023-07-31T15:18:07;4.30;;;2.60;;
15408;SDS011;7803;48.130;13.788;2023-07-31T15:21:09;5.32;;;2.60;;
15408;SDS011;7803;48.130;13.788;2023-07-31T15:24:11;3.63;;;2.45;;
15408;SDS011;7803;48.130;13.788;2023-07-31T15:27:14;3.42;;;2.35;;
15408;SDS011;7803;48.130;13.788;2023-07-31T15:30:16;4.68;;;2.60;;
15408;SDS011;7803;48.130;13.788;2023-07-31T15:33:18;4.05;;;2.30;;
15408;SDS011;7803;48.130;13.788;2023-07-31T15:36:21;3.35;;;2.33;;
15408;SDS011;7803;48.130;13.788;2023-07-31T15:39:23;8.13;;;3.58;;
15408;SDS011;7803;48.130;13.788;2023-07-31T15:42:27;4.07;;;2.50;;
15408;SDS011;7803;48.130;13.788;2023-07-31T15:45:29;4.38;;;2.58;;
15408;SDS011;7803;48.130;13.788;2023-07-31T15:48:31;3.35;;;2.42;;
15408;SDS011;7803;48.130;13.788;2023-07-31T15:51:33;4.00;;;2.67;;
15408;SDS011;7803;48.130;13.788;2023-07-31T15:54:35;2.88;;;2.17;;
15408;SDS011;7803;48.130;13.788;2023-07-31T15:57:39;2.72;;;2.15;;
15408;SDS011;7803;48.130;13.788;2023-07-31T16:00:41;2.22;;;2.03;;
15408;SDS011;7803;48.130;13.788;2023-07-31T16:03:43;3.50;;;2.35;;
15408;SDS011;7803;48.130;13.788;2023-07-31T16:06:45;5.70;;;2.95;;
15408;SDS011;7803;48.130;13.788;2023-07-31T16:09:47;3.85;;;2.50;;
15408;SDS011;7803;48.130;13.788;2023-07-31T16:12:50;3.03;;;2.47;;
15408;SDS011;7803;48.130;13.788;2023-07-31T16:15:52;7.35;;;3.22;;
15408;SDS011;7803;48.130;13.788;2023-07-31T16:18:54;4.38;;;2.65;;
15408;SDS011;7803;48.130;13.788;2023-07-31T16:21:57;2.97;;;2.25;;
15408;SDS011;7803;48.130;13.788;2023-07-31T16:24:59;2.65;;;2.30;;
15408;SDS011;7803;48.130;13.788;2023-07-31T16:28:02;5.68;;;2.90;;
15408;SDS011;7803;48.130;13.788;2023-07-31T16:31:05;4.60;;;2.90;;
15408;SDS011;7803;48.130;13.788;2023-07-31T16:34:07;3.00;;;2.33;;
15408;SDS011;7803;48.130;13.788;2023-07-31T16:37:10;3.33;;;2.53;;
15408;SDS011;7803;48.130;13.788;2023-07-31T16:40:12;3.83;;;2.60;;
15408;SDS011;7803;48.130;13.788;2023-07-31T16:43:17;3.53;;;2.80;;
15408;SDS011;7803;48.130;13.788;2023-07-31T16:46:19;4.30;;;2.60;;
15408;SDS011;7803;48.130;13.788;2023-07-31T16:49:21;3.08;;;2.25;;
15408;SDS011;7803;48.130;13.788;2023-07-31T16:52:23;2.30;;;2.10;;
15408;SDS011;7803;48.130;13.788;2023-07-31T16:55:25;4.95;;;2.88;;
15408;SDS011;7803;48.130;13.788;2023-07-31T16:58:30;3.20;;;2.60;;
15408;SDS011;7803;48.130;13.788;2023-07-31T17:01:32;2.90;;;2.47;;
15408;SDS011;7803;48.130;13.788;2023-07-31T17:04:34;2.70;;;2.30;;
15408;SDS011;7803;48.130;13.788;2023-07-31T17:07:36;3.47;;;2.40;;
15408;SDS011;7803;48.130;13.788;2023-07-31T17:10:37;3.33;;;2.50;;
15408;SDS011;7803;48.130;13.788;2023-07-31T17:13:41;3.55;;;2.60;;
15408;SDS011;7803;48.130;13.788;2023-07-31T17:16:43;3.42;;;2.63;;
15408;SDS011;7803;48.130;13.788;2023-07-31T17:19:45;2.58;;;2.33;;
15408;SDS011;7803;48.130;13.788;2023-07-31T17:22:47;2.38;;;2.15;;
15408;SDS011;7803;48.130;13.788;2023-07-31T17:25:49;3.63;;;2.60;;
15408;SDS011;7803;48.130;13.788;2023-07-31T17:28:53;2.78;;;2.17;;
15408;SDS011;7803;48.130;13.788;2023-07-31T17:31:55;2.60;;;2.30;;
15408;SDS011;7803;48.130;13.788;2023-07-31T17:34:59;3.67;;;2.55;;
15408;SDS011;7803;48.130;13.788;2023-07-31T17:38:02;2.90;;;2.38;;
15408;SDS011;7803;48.130;13.788;2023-07-31T17:41:06;3.63;;;2.35;;
15408;SDS011;7803;48.130;13.788;2023-07-31T17:44:11;5.65;;;3.20;;
15408;SDS011;7803;48.130;13.788;2023-07-31T17:47:15;5.22;;;2.80;;
15408;SDS011;7803;48.130;13.788;2023-07-31T17:50:19;2.88;;;2.35;;
15408;SDS011;7803;48.130;13.788;2023-07-31T17:53:22;3.42;;;2.25;;
15408;SDS011;7803;48.130;13.788;2023-07-31T17:56:27;3.08;;;2.38;;
15408;SDS011;7803;48.130;13.788;2023-07-31T17:59:33;3.42;;;2.45;;
15408;SDS011;7803;48.130;13.788;2023-07-31T18:02:37;2.65;;;2.17;;
15408;SDS011;7803;48.130;13.788;2023-07-31T18:05:40;2.33;;;2.10;;
15408;SDS011;7803;48.130;13.788;2023-07-31T18:08:44;3.85;;;2.67;;
15408;SDS011;7803;48.130;13.788;2023-07-31T18:11:48;3.33;;;2.53;;
15408;SDS011;7803;48.130;13.788;2023-07-31T18:14:54;3.15;;;2.58;;
15408;SDS011;7803;48.130;13.788;2023-07-31T18:17:58;3.53;;;2.53;;
15408;SDS011;7803;48.130;13.788;2023-07-31T18:21:01;3.80;;;2.90;;
15408;SDS011;7803;48.130;13.788;2023-07-31T18:24:06;3.78;;;2.70;;
15408;SDS011;7803;48.130;13.788;2023-07-31T18:27:10;3.47;;;2.72;;
15408;SDS011;7803;48.130;13.788;2023-07-31T18:30:16;3.00;;;2.70;;
15408;SDS011;7803;48.130;13.788;2023-07-31T18:33:20;3.50;;;2.78;;
15408;SDS011;7803;48.130;13.788;2023-07-31T18:36:23;3.33;;;2.58;;
15408;SDS011;7803;48.130;13.788;2023-07-31T18:39:27;2.60;;;2.30;;
15408;SDS011;7803;48.130;13.788;2023-07-31T18:42:32;7.55;;;3.65;;
15408;SDS011;7803;48.130;13.788;2023-07-31T18:45:37;5.65;;;3.50;;
15408;SDS011;7803;48.130;13.788;2023-07-31T18:48:41;3.42;;;2.72;;
15408;SDS011;7803;48.130;13.788;2023-07-31T18:51:45;3.78;;;2.70;;
15408;SDS011;7803;48.130;13.788;2023-07-31T18:54:48;3.20;;;2.55;;
15408;SDS011;7803;48.130;13.788;2023-07-31T18:57:52;3.67;;;2.78;;
15408;SDS011;7803;48.130;13.788;2023-07-31T19:00:57;5.38;;;3.22;;
15408;SDS011;7803;48.130;13.788;2023-07-31T19:04:01;3.65;;;2.92;;
15408;SDS011;7803;48.130;13.788;2023-07-31T19:07:05;5.45;;;3.38;;
15408;SDS011;7803;48.130;13.788;2023-07-31T19:10:09;4.32;;;3.08;;
15408;SDS011;7803;48.130;13.788;2023-07-31T19:13:12;3.92;;;2.83;;
15408;SDS011;7803;48.130;13.788;2023-07-31T19:16:18;3.00;;;2.60;;
15408;SDS011;7803;48.130;13.788;2023-07-31T19:19:21;3.50;;;2.88;;
15408;SDS011;7803;48.130;13.788;2023-07-31T19:22:25;3.88;;;3.00;;
15408;SDS011;7803;48.130;13.788;2023-07-31T19:25:29;4.30;;;2.83;;
15408;SDS011;7803;48.130;13.788;2023-07-31T19:28:32;3.55;;;2.70;;
15408;SDS011;7803;48.130;13.788;2023-07-31T19:31:37;4.50;;;2.88;;
15408;SDS011;7803;48.130;13.788;2023-07-31T19:34:42;3.83;;;2.80;;
15408;SDS011;7803;48.130;13.788;2023-07-31T19:37:46;4.97;;;3.30;;
15408;SDS011;7803;48.130;13.788;2023-07-31T19:40:50;4.35;;;2.90;;
15408;SDS011;7803;48.130;13.788;2023-07-31T19:43:53;3.30;;;2.85;;
15408;SDS011;7803;48.130;13.788;2023-07-31T19:46:59;5.00;;;2.95;;
15408;SDS011;7803;48.130;13.788;2023-07-31T19:50:02;4.40;;;3.22;;
15408;SDS011;7803;48.130;13.788;2023-07-31T19:53:07;3.55;;;2.55;;
15408;SDS011;7803;48.130;13.788;2023-07-31T19:56:11;6.55;;;3.15;;
15408;SDS011;7803;48.130;13.788;2023-07-31T19:59:14;7.40;;;3.90;;
15408;SDS011;7803;48.130;13.788;2023-07-31T20:02:21;3.80;;;3.05;;
15408;SDS011;7803;48.130;13.788;2023-07-31T20:05:24;5.45;;;3.08;;
15408;SDS011;7803;48.130;13.788;2023-07-31T20:08:28;3.45;;;2.90;;
15408;SDS011;7803;48.130;13.788;2023-07-31T20:11:32;4.60;;;3.10;;
15408;SDS011;7803;48.130;13.788;2023-07-31T20:14:36;5.28;;;3.40;;
15408;SDS011;7803;48.130;13.788;2023-07-31T20:17:43;4.28;;;3.00;;
15408;SDS011;7803;48.130;13.788;2023-07-31T20:20:46;4.70;;;2.92;;
15408;SDS011;7803;48.130;13.788;2023-07-31T20:23:50;2.90;;;2.60;;
15408;SDS011;7803;48.130;13.788;2023-07-31T20:26:54;4.57;;;3.10;;
15408;SDS011;7803;48.130;13.788;2023-07-31T20:29:57;5.15;;;3.50;;
15408;SDS011;7803;48.130;13.788;2023-07-31T20:33:02;3.88;;;3.13;;
15408;SDS011;7803;48.130;13.788;2023-07-31T20:36:06;6.30;;;3.33;;
15408;SDS011;7803;48.130;13.788;2023-07-31T20:39:09;5.22;;;3.38;;
15408;SDS011;7803;48.130;13.788;2023-07-31T20:42:13;4.13;;;3.17;;
15408;SDS011;7803;48.130;13.788;2023-07-31T20:45:18;4.53;;;3.28;;
15408;SDS011;7803;48.130;13.788;2023-07-31T20:48:23;4.28;;;3.10;;
15408;SDS011;7803;48.130;13.788;2023-07-31T20:51:26;6.13;;;3.42;;
15408;SDS011;7803;48.130;13.788;2023-07-31T20:54:29;5.40;;;3.47;;
15408;SDS011;7803;48.130;13.788;2023-07-31T20:57:32;4.55;;;3.00;;
15408;SDS011;7803;48.130;13.788;2023-07-31T21:00:35;4.20;;;3.20;;
15408;SDS011;7803;48.130;13.788;2023-07-31T21:03:41;5.68;;;3.40;;
15408;SDS011;7803;48.130;13.788;2023-07-31T21:06:43;4.78;;;2.97;;
15408;SDS011;7803;48.130;13.788;2023-07-31T21:09:44;6.97;;;3.63;;
15408;SDS011;7803;48.130;13.788;2023-07-31T21:12:47;5.93;;;2.97;;
15408;SDS011;7803;48.130;13.788;2023-07-31T21:15:49;4.60;;;3.35;;
15408;SDS011;7803;48.130;13.788;2023-07-31T21:18:52;5.43;;;3.90;;
15408;SDS011;7803;48.130;13.788;2023-07-31T21:21:55;5.20;;;3.13;;
15408;SDS011;7803;48.130;13.788;2023-07-31T21:24:57;5.50;;;3.60;;
15408;SDS011;7803;48.130;13.788;2023-07-31T21:27:59;5.82;;;3.42;;
15408;SDS011;7803;48.130;13.788;2023-07-31T21:31:07;4.18;;;3.38;;
15408;SDS011;7803;48.130;13.788;2023-07-31T21:34:12;3.28;;;2.92;;
15408;SDS011;7803;48.130;13.788;2023-07-31T21:37:14;3.95;;;3.13;;
15408;SDS011;7803;48.130;13.788;2023-07-31T21:40:16;4.60;;;3.35;;
15408;SDS011;7803;48.130;13.788;2023-07-31T21:43:18;6.35;;;3.85;;
15408;SDS011;7803;48.130;13.788;2023-07-31T21:46:20;6.15;;;3.80;;
15408;SDS011;7803;48.130;13.788;2023-07-31T21:49:23;5.45;;;3.75;;
15408;SDS011;7803;48.130;13.788;2023-07-31T21:52:25;5.22;;;3.63;;
15408;SDS011;7803;48.130;13.788;2023-07-31T21:55:27;5.30;;;3.67;;
15408;SDS011;7803;48.130;13.788;2023-07-31T21:58:29;4.53;;;3.63;;
15408;SDS011;7803;48.130;13.788;2023-07-31T22:01:31;4.47;;;3.40;;
15408;SDS011;7803;48.130;13.788;2023-07-31T22:04:34;4.70;;;3.58;;
15408;SDS011;7803;48.130;13.788;2023-07-31T22:07:38;5.30;;;3.42;;
15408;SDS011;7803;48.130;13.788;2023-07-31T22:10:40;5.57;;;3.53;;
15408;SDS011;7803;48.130;13.788;2023-07-31T22:13:42;6.20;;;3.75;;
15408;SDS011;7803;48.130;13.788;2023-07-31T22:16:44;4.25;;;3.33;;
15408;SDS011;7803;48.130;13.788;2023-07-31T22:19:47;4.43;;;3.13;;
15408;SDS011;7803;48.130;13.788;2023-07-31T22:22:49;4.72;;;3.47;;
15408;SDS011;7803;48.130;13.788;2023-07-31T22:25:52;3.97;;;3.58;;
15408;SDS011;7803;48.130;13.788;2023-07-31T22:28:54;4.25;;;3.42;;